Home > Products > Valid Products > MTR

000
SAUS43 KDTX 011955 COR
MTRP58
METAR KP58 011951Z AUTO 11012KT 17/14 A3003 RMK AO1 SLP168 T01670144





000
SAUS43 KDTX 011953 COR
MTRP58
METAR KP58 011951Z AUTO 11012KT 17/14 A3003 RMK AO1 SLP168 T01670144





000
SAUS43 KDTX 011853
MTRP58
METAR KP58 011851Z AUTO 11011KT 17/15 A3005 RMK AO1 SLP172 T01670150





000
SAUS43 KDTX 011754
MTRP58
METAR KP58 011751Z AUTO 10005KT 16/15 A3006 RMK AO1 SLP177 T01610150
10161 20150 58003





000
SAUS43 KDTX 011654
MTRP58
METAR KP58 011651Z AUTO 07006KT 16/15 A3006 RMK AO1 SLP178 T01610150





000
SAUS43 KDTX 011554
MTRP58
METAR KP58 011551Z AUTO 10005KT 16/15 A3007 RMK AO1 SLP181 T01610150





000
SAUS43 KDTX 011454
MTRP58
METAR KP58 011451Z AUTO 00000KT 16/14 A3007 RMK AO1 SLP181 T01560144
53010





000
SAUS43 KDTX 011354
MTRP58
METAR KP58 011351Z AUTO 00000KT 16/14 A3006 RMK AO1 SLP176 T01560144





000
SAUS43 KDTX 011254
MTRP58
METAR KP58 011251Z AUTO 09003KT 15/14 A3005 RMK AO1 SLP173 T01500144





000
SAUS43 KDTX 011154
MTRP58
METAR KP58 011151Z AUTO 05005KT 15/14 A3004 RMK AO1 SLP170 70004
T01500139 10150 20139 53005





000
SAUS43 KDTX 011052
MTRP58
METAR KP58 011051Z AUTO 00000KT 15/14 A3003 RMK AO1 SLP168 T01500139





000
SAUS43 KDTX 010954
MTRP58
METAR KP58 010951Z AUTO 00000KT 14/14 A3002 RMK AO1 SLP165 T01440139





000
SAUS43 KDTX 010854
MTRP58
METAR KP58 010851Z AUTO 05003KT 15/13 A3002 RMK AO1 SLP166 T01500133
58001





000
SAUS43 KDTX 010754
MTRP58
METAR KP58 010751Z AUTO 06006KT 14/13 A3002 RMK AO1 SLP165 T01390133





000
SAUS43 KDTX 010654
MTRP58
METAR KP58 010651Z AUTO 05008KT 14/13 A3003 RMK AO1 SLP168 T01390133





000
SAUS43 KDTX 010554
MTRP58
METAR KP58 010551Z AUTO 06010KT 14/13 A3002 RMK AO1 SLP167 T01440133
10144 20133 53002





000
SAUS43 KDTX 010454
MTRP58
METAR KP58 010451Z AUTO 05015KT 14/13 A3002 RMK AO1 SLP166 T01390133
401390111





000
SAUS43 KDTX 010354
MTRP58
METAR KP58 010351Z AUTO 03017KT 14/13 A3002 RMK AO1 SLP166 T01390128





000
SAUS43 KDTX 010252
MTRP58
METAR KP58 010251Z AUTO 04016KT 14/13 A3002 RMK AO1 SLP165 T01390133
51009





000
SAUS43 KDTX 010153
MTRP58
METAR KP58 010151Z AUTO 03013KT 14/13 A3002 RMK AO1 SLP165 T01390128





000
SAUS43 KDTX 010054
MTRP58
METAR KP58 010051Z AUTO 03013KT 14/13 A3001 RMK AO1 SLP162 T01390128





000
SAUS43 KDTX 302353
MTRP58
METAR KP58 302351Z AUTO 01011G17KT 13/12 A2999 RMK AO1 SLP156 60002
T01330122 10133 20117 51009





000
SAUS43 KDTX 302254
MTRP58
METAR KP58 302251Z AUTO 36007G18KT 300V030 13/12 A2999 RMK AO1
SLP155 T01280122





000
SAUS43 KDTX 302154
MTRP58
METAR KP58 302151Z AUTO 36007G16KT 13/12 A2998 RMK AO1 SLP152 P0001
T01280117





000
SAUS43 KDTX 302053
MTRP58
METAR KP58 302051Z AUTO VRB06G15KT 13/12 A2996 RMK AO1 SLP147 P0001
60001 T01280117 53000





000
SAUS43 KDTX 301952
MTRP58
METAR KP58 301951Z AUTO 00000KT 13/12 A2995 RMK AO1 SLP144 T01280117





000
SAUS43 KDTX 301854 COR
MTRP58
METAR KP58 301851Z AUTO 00000KT 12/11 A2996 RMK AO1 SLP145 T01220111





000
SAUS43 KDTX 301853 COR
MTRP58
METAR KP58 301851Z AUTO 00000KT 12/11 A2996 RMK AO1 SLP145 T01220111





000
SAUS43 KDTX 301754
MTRP58
METAR KP58 301751Z AUTO VRB03KT 12/11 A2996 RMK AO1 SLP146 P0002
60002 T01170106 10122 20111 50004





000
SAUS43 KDTX 301654
MTRP58
METAR KP58 301651Z AUTO VRB03KT 12/11 A2996 RMK AO1 SLP147 T01170106





000
SAUS43 KDTX 301554
MTRP58
METAR KP58 301551Z AUTO VRB04KT 12/09 A2996 RMK AO1 SLP144 T01170094





000
SAUS43 KDTX 301454
MTRP58
METAR KP58 301451Z AUTO 00000KT 12/09 A2995 RMK AO1 SLP141 T01170094
51005





000
SAUS43 KDTX 301354
MTRP58
METAR KP58 301351Z AUTO VRB04KT 12/09 A2994 RMK AO1 SLP139 T01170094





000
SAUS43 KDTX 301254
MTRP58
METAR KP58 301251Z AUTO VRB03KT 12/09 A2994 RMK AO1 SLP138 T01170094





000
SAUS43 KDTX 301154
MTRP58
METAR KP58 301151Z AUTO 00000KT 12/10 A2993 RMK AO1 SLP135 60001
70083 T01170100 10139 20111 51013





000
SAUS43 KDTX 301053
MTRP58
METAR KP58 301051Z AUTO 00000KT 12/10 A2992 RMK AO1 SLP131 T01170100





000
SAUS43 KDTX 300954
MTRP58
METAR KP58 300951Z AUTO VRB04KT 12/11 A2991 RMK AO1 SLP126 T01170106





000
SAUS43 KDTX 300854
MTRP58
METAR KP58 300851Z AUTO VRB05KT 12/11 A2990 RMK AO1 SLP121 60001
T01220111 51008





000
SAUS43 KDTX 300754
MTRP58
METAR KP58 300751Z AUTO VRB04KT 13/12 A2989 RMK AO1 SLP119 P0001
T01280117





000
SAUS43 KDTX 300653
MTRP58
METAR KP58 300651Z AUTO VRB03KT 13/12 A2988 RMK AO1 SLP116 T01280117





000
SAUS43 KDTX 300554
MTRP58
METAR KP58 300551Z AUTO 00000KT 13/12 A2987 RMK AO1 SLP112 60082
T01330122 10172 20133 55002





000
SAUS43 KDTX 300454
MTRP58
METAR KP58 300451Z AUTO VRB05G17KT 13/13 A2987 RMK AO1 SLP110 P0008
T01330128 402390117





000
SAUS43 KDTX 300354
MTRP58
METAR KP58 300351Z AUTO 31011G18KT 14/13 A2987 RMK AO1 SLP111 P0020
T01440133





000
SAUS43 KDTX 300253
MTRP58
METAR KP58 300251Z AUTO VRB03KT 16/14 A2988 RMK AO1 SLP112 P0014
60054 T01560144 50002





000
SAUS43 KDTX 300154
MTRP58
METAR KP58 300151Z AUTO 00000KT 17/16 A2988 RMK AO1 SLP115 P0017
T01670161





000
SAUS43 KDTX 300056 COR
MTRP58
METAR KP58 300051Z AUTO 02006KT 17/16 A2988 RMK AO1 SLP115 P0023
T01670161





000
SAUS43 KDTX 300053 COR
MTRP58
METAR KP58 300051Z AUTO 02006KT 17/16 A2988 RMK AO1 SLP115 P0023
T01670161





000
SAUS43 KDTX 292353
MTRP58
METAR KP58 292351Z AUTO VRB03KT 18/15 A2987 RMK AO1 SLP112 T01780150
10206 20178 55002





000
SAUS43 KDTX 292254
MTRP58
METAR KP58 292251Z AUTO 00000KT 19/17 A2984 RMK AO1 SLP102 T01940172





000
SAUS43 KDTX 292154
MTRP58
METAR KP58 292151Z AUTO 12006KT 19/17 A2986 RMK AO1 SLP110 T01940167





000
SAUS43 KDTX 292053
MTRP58
METAR KP58 292051Z AUTO 11006KT 19/17 A2988 RMK AO1 SLP115 T01940167





000
SAUS43 KDTX 291953
MTRP58
METAR KP58 291951Z AUTO 09004KT 19/17 A2989 RMK AO1 SLP121 T01940167





000
SAUS43 KDTX 291857 COR
MTRP58
METAR KP58 291851Z AUTO 05003KT 19/17 A2991 RMK AO1 SLP125 T01940167





000
SAUS43 KDTX 291854 COR
MTRP58
METAR KP58 291851Z AUTO 05003KT 19/17 A2991 RMK AO1 SLP125 T01940167





000
SAUS43 KDTX 291853
MTRP58
METAR KP58 291851Z AUTO 05003KT 19/17 A2991 RMK AO1 SLP125 T01940167





000
SAUS43 KDTX 291754
MTRP58
METAR KP58 291751Z AUTO 06006KT 21/16 A2993 RMK AO1 SLP132 T02060161
10239 20144 58018





000
SAUS43 KDTX 291654
MTRP58
METAR KP58 291651Z AUTO VRB06KT 23/13 A2995 RMK AO1 SLP139 T02280133





000
SAUS43 KDTX 291553
MTRP58
METAR KP58 291551Z AUTO 21005KT 22/14 A2997 RMK AO1 SLP144 T02170144





000
SAUS43 KDTX 291453
MTRP58
METAR KP58 291451Z AUTO 24006KT 21/14 A2998 RMK AO1 SLP150 T02060144
58002





000
SAUS43 KDTX 291354
MTRP58
METAR KP58 291351Z AUTO 24006KT 18/14 A2999 RMK AO1 SLP152 T01830144





000
SAUS43 KDTX 291254
MTRP58
METAR KP58 291251Z AUTO 23005KT 16/14 A2999 RMK AO1 SLP155 T01610139





000
SAUS43 KDTX 291154
MTRP58
METAR KP58 291151Z AUTO 23006KT 14/13 A2999 RMK AO1 SLP154 T01440133
10150 20117 58004





000
SAUS43 KDTX 291057 COR
MTRP58
METAR KP58 291051Z AUTO 24006KT 14/13 A2999 RMK AO1 SLP154 T01390128





000
SAUS43 KDTX 291055 COR
MTRP58
METAR KP58 291051Z AUTO 24006KT 14/13 A2999 RMK AO1 SLP154 T01390128





000
SAUS43 KDTX 291054
MTRP58
METAR KP58 291051Z AUTO 24006KT 14/13 A2999 RMK AO1 SLP154 T01390128





000
SAUS43 KDTX 290954
MTRP58
METAR KP58 290951Z AUTO 25005KT 13/12 A3001 RMK AO1 SLP158 T01280117





000
SAUS43 KDTX 290854 COR
MTRP58
METAR KP58 290851Z AUTO 24003KT 12/11 A3000 RMK AO1 SLP158 T01220111
56005





000
SAUS43 KDTX 290853 COR
MTRP58
METAR KP58 290851Z AUTO 24003KT 12/11 A3000 RMK AO1 SLP158 T01220111
56005





000
SAUS43 KDTX 290754
MTRP58
METAR KP58 290751Z AUTO 22003KT 13/12 A3001 RMK AO1 SLP159 T01280117





000
SAUS43 KDTX 290654
MTRP58
METAR KP58 290651Z AUTO 23006KT 14/12 A3001 RMK AO1 SLP161 T01390117





000
SAUS43 KDTX 290554
MTRP58
METAR KP58 290551Z AUTO 23005KT 14/12 A3002 RMK AO1 SLP162 T01390122
10161 20128 56012





000
SAUS43 KDTX 290454
MTRP58
METAR KP58 290451Z AUTO 23006KT 14/12 A3003 RMK AO1 SLP165 T01440122
402060111





000
SAUS43 KDTX 290354
MTRP58
METAR KP58 290351Z AUTO 22005KT 13/12 A3004 RMK AO1 SLP170 T01330122





000
SAUS43 KDTX 290254
MTRP58
METAR KP58 290251Z AUTO 23003KT 14/13 A3005 RMK AO1 SLP174 T01390128
58007





000
SAUS43 KDTX 290154
MTRP58
METAR KP58 290151Z AUTO 22005KT 15/13 A3007 RMK AO1 SLP178 T01500133





000
SAUS43 KDTX 290052
MTRP58
METAR KP58 290051Z AUTO 00000KT 15/14 A3007 RMK AO1 SLP183 T01500139





000
SAUS43 KDTX 282358 COR
MTRP58
METAR KP58 282351Z AUTO 00000KT 16/15 A3008 RMK AO1 SLP184 T01610150
10200 20161 56004





000
SAUS43 KDTX 282354 COR
MTRP58
METAR KP58 282351Z AUTO 00000KT 16/15 A3008 RMK AO1 SLP184 T01610150
10200 20161 56004





000
SAUS43 KDTX 282254
MTRP58
METAR KP58 282251Z AUTO 00000KT 18/16 A3008 RMK AO1 SLP184 T01780156





000
SAUS43 KDTX 282154
MTRP58
METAR KP58 282151Z AUTO 12004KT 18/16 A3008 RMK AO1 SLP185 T01830156





000
SAUS43 KDTX 282052
MTRP58
METAR KP58 282051Z AUTO 11003KT 18/16 A3009 RMK AO1 SLP188 T01830156
56017





    US Dept of Commerce
    National Oceanic and Atmospheric Administration
    National Weather Service
    1325 East West Highway
    Silver Spring, MD 20910
    Page Author: NWS Internet Services Team
Disclaimer
Information Quality
Credits
Glossary
Privacy Policy
Freedom of Information Act (FOIA)
About Us
Career Opportunities